Terminal Aerodrome Forecast
Issued by NWS Rapid City, SD

Home | Current Version | Previous Version | Graphics & Text | Print | Product List | Glossary On
Versions: 1 2 3 4 5 6 7 8 9 10 11 12 13 14 15 16 17 18 19
000
FTUS43 KUNR 312100 AAB
TAFRAP
TAF AMD
KRAP 312112Z 3121/0118 VRB05KT P6SM -SHRA BKN040 OVC080
      TEMPO 3121/3124 VRB30KT 1SM +TSRA OVC030CB
     FM010200 33017KT P6SM SCT080 BKN150=

USA.gov is the U.S. government's official web portal to all federal, state and local government web resources and services.